CYCS

Chesterfield Inlet Airport

Chesterfield Inlet, Canada
METAR CYCS 212300Z 30016KT 10SM DRSN OVC220 M37/M41 A2984 RMK CS8 -30.8/-37.2/NIL/60 MEDIUM PACK/ LASTS STFD OBS/ NXT 221300 SLP107
Observed Flight Rules
Jan-21 @ 23:00 UTC (5 hours ago) Visual Flight Rules
Wind Visibility Clouds Conditions
300° at 16 knots 10 miles
  • Overcast at 22,000' AGL
  • Low drifting
  • Snow
Temperatures Readings
Current -37°C / -35°F
Dewpoint -41°C / -42°F
Humidity 66%
Altimeter 29.84" Hg
Pressure 1010.52 hPa
Elevation 11
METAR CYCS 212300Z 30016KT 10SM DRSN OVC220 M37/M41 A2984 RMK CS8 -30.8/-37.2/NIL/60 MEDIUM PACK/ LASTS STFD OBS/ NXT 221300 SLP107
Observed Flight Rules
Jan-21 @ 23:00 UTC
(5 hours ago)
VFR
Wind Visibility
300° at 16 knots 10 miles
Clouds
  • Overcast at 22,000' AGL
Conditions
  • Low drifting
  • Snow
Temperature Dewpoint
-37°C / -35°F -41°C / -42°F
Humidity Altimeter Pressure
66% 29.84" Hg 1010.52 hPa